sensor_id;sensor_type;location;lat;lon;timestamp;P1;durP1;ratioP1;P2;durP2;ratioP2
54917;SDS011;40818;50.562;7.454;2024-03-08T00:00:33;16.38;;;7.63;;
54917;SDS011;40818;50.562;7.454;2024-03-08T00:10:38;16.95;;;7.90;;
54917;SDS011;40818;50.562;7.454;2024-03-08T00:20:44;21.58;;;8.38;;
54917;SDS011;40818;50.562;7.454;2024-03-08T00:30:50;21.25;;;9.00;;
54917;SDS011;40818;50.562;7.454;2024-03-08T00:40:56;21.20;;;8.73;;
54917;SDS011;40818;50.562;7.454;2024-03-08T00:51:00;21.05;;;8.85;;
54917;SDS011;40818;50.562;7.454;2024-03-08T01:01:06;25.17;;;10.00;;
54917;SDS011;40818;50.562;7.454;2024-03-08T01:11:10;20.92;;;8.80;;
54917;SDS011;40818;50.562;7.454;2024-03-08T01:21:16;29.48;;;11.25;;
54917;SDS011;40818;50.562;7.454;2024-03-08T01:31:20;23.15;;;9.52;;
54917;SDS011;40818;50.562;7.454;2024-03-08T01:41:26;29.55;;;10.88;;
54917;SDS011;40818;50.562;7.454;2024-03-08T01:51:29;26.35;;;8.32;;
54917;SDS011;40818;50.562;7.454;2024-03-08T02:01:36;20.08;;;8.82;;
54917;SDS011;40818;50.562;7.454;2024-03-08T02:11:40;23.90;;;8.40;;
54917;SDS011;40818;50.562;7.454;2024-03-08T02:21:46;23.73;;;9.27;;
54917;SDS011;40818;50.562;7.454;2024-03-08T02:31:50;25.58;;;9.88;;
54917;SDS011;40818;50.562;7.454;2024-03-08T02:41:56;30.10;;;10.27;;
54917;SDS011;40818;50.562;7.454;2024-03-08T02:52:00;25.83;;;10.20;;
54917;SDS011;40818;50.562;7.454;2024-03-08T03:02:05;28.35;;;10.98;;
54917;SDS011;40818;50.562;7.454;2024-03-08T03:12:10;28.42;;;10.55;;
54917;SDS011;40818;50.562;7.454;2024-03-08T03:22:16;25.08;;;10.27;;
54917;SDS011;40818;50.562;7.454;2024-03-08T03:32:20;27.92;;;10.55;;
54917;SDS011;40818;50.562;7.454;2024-03-08T03:42:26;30.08;;;12.00;;
54917;SDS011;40818;50.562;7.454;2024-03-08T03:52:29;26.30;;;10.55;;
54917;SDS011;40818;50.562;7.454;2024-03-08T04:02:35;38.55;;;9.50;;
54917;SDS011;40818;50.562;7.454;2024-03-08T04:12:39;28.58;;;10.70;;
54917;SDS011;40818;50.562;7.454;2024-03-08T04:22:45;32.47;;;11.73;;
54917;SDS011;40818;50.562;7.454;2024-03-08T04:32:49;31.85;;;11.80;;
54917;SDS011;40818;50.562;7.454;2024-03-08T04:42:55;31.88;;;12.25;;
54917;SDS011;40818;50.562;7.454;2024-03-08T04:52:59;30.55;;;12.95;;
54917;SDS011;40818;50.562;7.454;2024-03-08T05:03:06;37.33;;;11.30;;
54917;SDS011;40818;50.562;7.454;2024-03-08T05:13:09;32.25;;;12.48;;
54917;SDS011;40818;50.562;7.454;2024-03-08T05:23:15;35.03;;;11.95;;
54917;SDS011;40818;50.562;7.454;2024-03-08T05:33:19;32.22;;;10.43;;
54917;SDS011;40818;50.562;7.454;2024-03-08T05:43:26;32.33;;;12.45;;
54917;SDS011;40818;50.562;7.454;2024-03-08T05:53:30;34.83;;;13.98;;
54917;SDS011;40818;50.562;7.454;2024-03-08T06:03:36;27.83;;;12.32;;
54917;SDS011;40818;50.562;7.454;2024-03-08T06:13:45;30.40;;;11.70;;
54917;SDS011;40818;50.562;7.454;2024-03-08T06:23:52;34.33;;;12.88;;
54917;SDS011;40818;50.562;7.454;2024-03-08T06:33:57;32.35;;;11.73;;
54917;SDS011;40818;50.562;7.454;2024-03-08T06:44:04;34.17;;;12.52;;
54917;SDS011;40818;50.562;7.454;2024-03-08T06:54:08;35.92;;;10.88;;
54917;SDS011;40818;50.562;7.454;2024-03-08T07:04:14;35.25;;;13.18;;
54917;SDS011;40818;50.562;7.454;2024-03-08T07:14:21;34.55;;;12.55;;
54917;SDS011;40818;50.562;7.454;2024-03-08T07:24:27;36.67;;;13.48;;
54917;SDS011;40818;50.562;7.454;2024-03-08T07:34:39;31.10;;;13.68;;
54917;SDS011;40818;50.562;7.454;2024-03-08T07:44:45;24.15;;;12.55;;
54917;SDS011;40818;50.562;7.454;2024-03-08T07:54:50;28.98;;;15.75;;
54917;SDS011;40818;50.562;7.454;2024-03-08T08:04:57;27.88;;;14.98;;
54917;SDS011;40818;50.562;7.454;2024-03-08T08:15:01;26.10;;;12.10;;
54917;SDS011;40818;50.562;7.454;2024-03-08T08:25:07;23.73;;;13.52;;
54917;SDS011;40818;50.562;7.454;2024-03-08T08:35:13;26.00;;;13.95;;
54917;SDS011;40818;50.562;7.454;2024-03-08T08:45:21;23.98;;;12.98;;
54917;SDS011;40818;50.562;7.454;2024-03-08T08:55:24;21.65;;;11.07;;
54917;SDS011;40818;50.562;7.454;2024-03-08T09:05:32;26.30;;;13.80;;
54917;SDS011;40818;50.562;7.454;2024-03-08T09:15:37;23.58;;;12.82;;
54917;SDS011;40818;50.562;7.454;2024-03-08T09:25:44;22.83;;;13.35;;
54917;SDS011;40818;50.562;7.454;2024-03-08T09:35:48;19.08;;;11.13;;
54917;SDS011;40818;50.562;7.454;2024-03-08T09:45:54;21.77;;;11.85;;
54917;SDS011;40818;50.562;7.454;2024-03-08T09:55:58;25.77;;;13.32;;
54917;SDS011;40818;50.562;7.454;2024-03-08T10:06:06;22.30;;;10.82;;
54917;SDS011;40818;50.562;7.454;2024-03-08T10:16:11;22.30;;;13.55;;
54917;SDS011;40818;50.562;7.454;2024-03-08T10:26:17;19.65;;;10.98;;
54917;SDS011;40818;50.562;7.454;2024-03-08T10:36:21;17.27;;;9.27;;
54917;SDS011;40818;50.562;7.454;2024-03-08T10:46:30;12.88;;;8.73;;
54917;SDS011;40818;50.562;7.454;2024-03-08T10:56:40;18.33;;;9.15;;
54917;SDS011;40818;50.562;7.454;2024-03-08T11:06:46;21.48;;;6.72;;
54917;SDS011;40818;50.562;7.454;2024-03-08T11:16:53;15.10;;;7.90;;
54917;SDS011;40818;50.562;7.454;2024-03-08T11:26:59;15.65;;;8.25;;
54917;SDS011;40818;50.562;7.454;2024-03-08T11:37:04;15.18;;;7.88;;
54917;SDS011;40818;50.562;7.454;2024-03-08T11:47:12;15.57;;;8.15;;
54917;SDS011;40818;50.562;7.454;2024-03-08T11:57:17;13.10;;;7.50;;
54917;SDS011;40818;50.562;7.454;2024-03-08T12:07:24;14.80;;;7.35;;
54917;SDS011;40818;50.562;7.454;2024-03-08T12:17:28;11.20;;;4.57;;
54917;SDS011;40818;50.562;7.454;2024-03-08T12:27:36;9.40;;;4.28;;
54917;SDS011;40818;50.562;7.454;2024-03-08T12:37:40;11.23;;;6.55;;
54917;SDS011;40818;50.562;7.454;2024-03-08T12:47:46;10.73;;;5.50;;
54917;SDS011;40818;50.562;7.454;2024-03-08T12:57:51;9.52;;;6.00;;
54917;SDS011;40818;50.562;7.454;2024-03-08T13:07:57;8.98;;;4.32;;
54917;SDS011;40818;50.562;7.454;2024-03-08T13:18:01;13.73;;;7.82;;
54917;SDS011;40818;50.562;7.454;2024-03-08T13:28:08;10.75;;;5.30;;
54917;SDS011;40818;50.562;7.454;2024-03-08T13:38:13;11.25;;;5.88;;
54917;SDS011;40818;50.562;7.454;2024-03-08T13:48:20;13.27;;;5.30;;
54917;SDS011;40818;50.562;7.454;2024-03-08T13:58:24;10.73;;;5.57;;
54917;SDS011;40818;50.562;7.454;2024-03-08T14:08:30;10.88;;;6.03;;
54917;SDS011;40818;50.562;7.454;2024-03-08T14:18:33;13.02;;;5.53;;
54917;SDS011;40818;50.562;7.454;2024-03-08T14:28:39;10.25;;;5.50;;
54917;SDS011;40818;50.562;7.454;2024-03-08T14:38:43;10.77;;;5.30;;
54917;SDS011;40818;50.562;7.454;2024-03-08T14:48:50;12.02;;;5.75;;
54917;SDS011;40818;50.562;7.454;2024-03-08T14:58:54;11.18;;;4.70;;
54917;SDS011;40818;50.562;7.454;2024-03-08T15:09:02;14.25;;;7.32;;
54917;SDS011;40818;50.562;7.454;2024-03-08T15:19:11;8.48;;;3.75;;
54917;SDS011;40818;50.562;7.454;2024-03-08T15:29:18;20.50;;;7.30;;
54917;SDS011;40818;50.562;7.454;2024-03-08T15:39:26;11.47;;;4.80;;
54917;SDS011;40818;50.562;7.454;2024-03-08T15:49:36;15.13;;;7.70;;
54917;SDS011;40818;50.562;7.454;2024-03-08T15:59:39;11.05;;;5.28;;
54917;SDS011;40818;50.562;7.454;2024-03-08T16:09:45;13.57;;;7.53;;
54917;SDS011;40818;50.562;7.454;2024-03-08T16:19:49;18.67;;;6.63;;
54917;SDS011;40818;50.562;7.454;2024-03-08T16:29:55;14.52;;;7.93;;
54917;SDS011;40818;50.562;7.454;2024-03-08T16:39:58;21.40;;;9.35;;
54917;SDS011;40818;50.562;7.454;2024-03-08T16:50:05;22.02;;;6.85;;
54917;SDS011;40818;50.562;7.454;2024-03-08T17:00:11;14.90;;;5.38;;
54917;SDS011;40818;50.562;7.454;2024-03-08T17:10:21;20.85;;;9.23;;
54917;SDS011;40818;50.562;7.454;2024-03-08T17:20:26;17.60;;;9.63;;
54917;SDS011;40818;50.562;7.454;2024-03-08T17:30:34;18.40;;;8.70;;
54917;SDS011;40818;50.562;7.454;2024-03-08T17:40:39;20.83;;;9.02;;
54917;SDS011;40818;50.562;7.454;2024-03-08T17:50:46;19.23;;;8.45;;
54917;SDS011;40818;50.562;7.454;2024-03-08T18:00:54;19.88;;;10.30;;
54917;SDS011;40818;50.562;7.454;2024-03-08T18:11:00;21.40;;;11.07;;
54917;SDS011;40818;50.562;7.454;2024-03-08T18:21:03;20.38;;;9.95;;
54917;SDS011;40818;50.562;7.454;2024-03-08T18:31:11;21.27;;;10.55;;
54917;SDS011;40818;50.562;7.454;2024-03-08T18:41:15;22.27;;;11.23;;
54917;SDS011;40818;50.562;7.454;2024-03-08T18:51:21;20.08;;;10.75;;
54917;SDS011;40818;50.562;7.454;2024-03-08T19:01:25;25.20;;;11.07;;
54917;SDS011;40818;50.562;7.454;2024-03-08T19:11:34;18.90;;;8.80;;
54917;SDS011;40818;50.562;7.454;2024-03-08T19:21:39;19.08;;;9.10;;
54917;SDS011;40818;50.562;7.454;2024-03-08T19:31:47;16.55;;;8.27;;
54917;SDS011;40818;50.562;7.454;2024-03-08T19:41:51;18.50;;;8.73;;
54917;SDS011;40818;50.562;7.454;2024-03-08T19:51:57;21.08;;;8.43;;
54917;SDS011;40818;50.562;7.454;2024-03-08T20:02:00;14.25;;;6.63;;
54917;SDS011;40818;50.562;7.454;2024-03-08T20:12:06;17.10;;;7.95;;
54917;SDS011;40818;50.562;7.454;2024-03-08T20:22:10;16.88;;;7.18;;
54917;SDS011;40818;50.562;7.454;2024-03-08T20:32:16;15.48;;;6.43;;
54917;SDS011;40818;50.562;7.454;2024-03-08T20:42:19;15.63;;;6.55;;
54917;SDS011;40818;50.562;7.454;2024-03-08T20:52:26;13.40;;;5.63;;
54917;SDS011;40818;50.562;7.454;2024-03-08T21:02:31;20.95;;;5.78;;
54917;SDS011;40818;50.562;7.454;2024-03-08T21:12:37;13.43;;;5.55;;
54917;SDS011;40818;50.562;7.454;2024-03-08T21:22:41;10.85;;;4.00;;
54917;SDS011;40818;50.562;7.454;2024-03-08T21:32:49;13.20;;;3.35;;
54917;SDS011;40818;50.562;7.454;2024-03-08T21:42:53;13.48;;;4.82;;
54917;SDS011;40818;50.562;7.454;2024-03-08T21:53:01;12.95;;;4.88;;
54917;SDS011;40818;50.562;7.454;2024-03-08T22:03:07;15.30;;;5.38;;
54917;SDS011;40818;50.562;7.454;2024-03-08T22:13:13;16.30;;;4.57;;
54917;SDS011;40818;50.562;7.454;2024-03-08T22:23:18;10.85;;;5.22;;
54917;SDS011;40818;50.562;7.454;2024-03-08T22:33:24;12.70;;;6.03;;
54917;SDS011;40818;50.562;7.454;2024-03-08T22:43:28;10.32;;;4.60;;
54917;SDS011;40818;50.562;7.454;2024-03-08T22:53:37;13.35;;;6.85;;
54917;SDS011;40818;50.562;7.454;2024-03-08T23:03:41;12.70;;;5.78;;
54917;SDS011;40818;50.562;7.454;2024-03-08T23:13:48;16.45;;;5.63;;
54917;SDS011;40818;50.562;7.454;2024-03-08T23:23:51;13.57;;;5.88;;
54917;SDS011;40818;50.562;7.454;2024-03-08T23:33:57;12.05;;;6.50;;
54917;SDS011;40818;50.562;7.454;2024-03-08T23:44:01;12.68;;;5.22;;
54917;SDS011;40818;50.562;7.454;2024-03-08T23:54:08;11.65;;;6.13;;
